Time;durP1;ratioP1;P1;durP2;ratioP2;P2;SDS_P1;SDS_P2;PMS_P1;PMS_P2;Temp;Humidity;BMP_temperature;BMP_pressure;BME280_temperature;BME280_humidity;BME280_pressure;Samples;Min_cycle;Max_cycle;Signal;HPM_P1;HPM_P2
2022/09/07 00:01:06;;;;;;;4.30;1.65;;;16.90;99.90;;;;;;5011644;28;20403;-46
2022/09/07 00:03:33;;;;;;;3.45;1.60;;;16.80;99.90;;;;;;5005172;28;20053;-45
2022/09/07 00:06:06;;;;;;;3.10;2.00;;;16.80;99.90;;;;;;5011487;28;20052;-45
2022/09/07 00:08:33;;;;;;;2.75;1.80;;;16.80;99.90;;;;;;5011191;28;20042;-45
2022/09/07 00:11:03;;;;;;;4.50;2.20;;;16.70;99.90;;;;;;5006693;28;20042;-45
2022/09/07 00:13:33;;;;;;;4.90;1.77;;;16.70;99.90;;;;;;5009963;28;20034;-45
2022/09/07 00:16:06;;;;;;;3.28;1.85;;;16.70;99.90;;;;;;5005731;28;20034;-45
2022/09/07 00:18:33;;;;;;;5.00;2.42;;;16.70;99.90;;;;;;5011486;28;20038;-45
2022/09/07 00:21:01;;;;;;;;;;;16.60;99.90;;;;;;5016741;23;20038;-49
2022/09/07 00:23:29;;;;;;;3.43;2.40;;;16.80;99.90;;;;;;5035149;28;19925;-48
2022/09/07 00:26:09;;;;;;;5.10;2.30;;;16.80;99.90;;;;;;5039764;28;20047;-48
2022/09/07 00:28:36;;;;;;;7.30;2.60;;;16.80;99.90;;;;;;5030834;28;20046;-48
2022/09/07 00:31:07;;;;;;;4.43;2.10;;;16.90;99.90;;;;;;5045323;28;20041;-48
2022/09/07 00:33:34;;;;;;;7.43;2.03;;;16.90;99.90;;;;;;5050629;28;20047;-48
2022/09/07 00:36:01;;;;;;;3.65;1.70;;;16.90;99.90;;;;;;5050525;28;20044;-47
2022/09/07 00:38:28;;;;;;;2.55;2.00;;;16.90;99.90;;;;;;5051143;28;20037;-48
2022/09/07 00:40:55;;;;;;;4.00;2.60;;;17.00;99.90;;;;;;5034287;28;20560;-47
2022/09/07 00:43:39;;;;;;;4.15;2.60;;;17.00;99.90;;;;;;5050794;28;20052;-46
2022/09/07 00:46:11;;;;;;;5.45;2.65;;;17.00;99.90;;;;;;5049709;28;20052;-47
2022/09/07 00:48:47;;;;;;;6.50;2.20;;;16.90;99.90;;;;;;5049656;28;20037;-45
2022/09/07 00:51:20;;;;;;;4.55;2.55;;;16.90;99.90;;;;;;5034976;23;20061;-48
2022/09/07 00:53:58;;;;;;;4.03;2.10;;;16.90;99.90;;;;;;5002658;28;20042;-47
2022/09/07 00:56:30;;;;;;;4.85;2.30;;;16.90;99.90;;;;;;5007443;28;20039;-47
2022/09/07 00:58:58;;;;;;;3.75;2.13;;;16.90;99.90;;;;;;5011358;28;20049;-47
2022/09/07 01:01:25;;;;;;;4.40;2.20;;;17.00;99.90;;;;;;5009932;28;20041;-47
2022/09/07 01:03:55;;;;;;;3.50;2.30;;;17.00;99.90;;;;;;5010683;28;20038;-47
2022/09/07 01:06:26;;;;;;;4.45;2.33;;;17.00;99.90;;;;;;5002588;28;20047;-46
2022/09/07 01:08:58;;;;;;;3.70;2.35;;;17.00;99.90;;;;;;5011073;28;20089;-47
2022/09/07 01:11:25;;;;;;;3.88;2.20;;;17.00;99.90;;;;;;5005724;28;20407;-48
2022/09/07 01:13:52;;;;;;;4.00;2.25;;;17.00;99.90;;;;;;5010943;28;20498;-48
2022/09/07 01:16:30;;;;;;;3.67;2.20;;;17.00;99.90;;;;;;5007095;28;20042;-48
2022/09/07 01:18:57;;;;;;;6.65;2.40;;;16.90;99.90;;;;;;4999818;28;20042;-48
2022/09/07 01:21:42;;;;;;;5.13;2.40;;;16.90;99.90;;;;;;5008468;28;20049;-47
2022/09/07 01:24:47;;;;;;;4.63;2.33;;;16.80;99.90;;;;;;5011210;28;20037;-50
2022/09/07 01:27:41;;;;;;;6.13;2.88;;;16.80;99.90;;;;;;4996830;28;20054;-47
2022/09/07 01:30:11;;;;;;;2.60;2.20;;;16.80;99.90;;;;;;5014261;28;20061;-48
2022/09/07 01:32:44;;;;;;;5.72;2.70;;;16.80;99.90;;;;;;5013706;28;20509;-49
2022/09/07 01:35:21;;;;;;;7.35;2.80;;;16.70;99.90;;;;;;5014333;28;20513;-48
2022/09/07 01:38:09;;;;;;;3.33;2.05;;;16.80;99.90;;;;;;5011457;28;20387;-51
2022/09/07 01:41:06;;;;;;;4.63;2.00;;;16.80;99.90;;;;;;5019260;28;20045;-47
2022/09/07 01:43:43;;;;;;;2.90;2.05;;;16.80;99.90;;;;;;5033005;28;20042;-48
2022/09/07 01:46:31;;;;;;;3.78;2.40;;;16.80;99.90;;;;;;5034121;28;20050;-47
2022/09/07 01:49:10;;;;;;;4.45;1.98;;;16.70;99.90;;;;;;5014692;28;20120;-49
2022/09/07 01:51:44;;;;;;;3.10;2.30;;;16.70;99.90;;;;;;5014304;28;20100;-48
2022/09/07 01:54:19;;;;;;;3.60;2.58;;;16.70;99.90;;;;;;5014103;28;20049;-47
2022/09/07 01:56:49;;;;;;;4.97;2.40;;;16.60;99.90;;;;;;5008509;28;20413;-48
2022/09/07 01:59:37;;;;;;;3.63;1.98;;;16.60;99.90;;;;;;5014465;28;20054;-48
2022/09/07 02:02:08;;;;;;;3.50;2.22;;;16.60;99.90;;;;;;5009551;28;20042;-47
2022/09/07 02:05:07;;;;;;;3.03;1.95;;;16.60;99.90;;;;;;5013989;28;20066;-48
2022/09/07 02:07:38;;;;;;;;;;;16.50;99.90;;;;;;4980830;28;20069;-47
2022/09/07 02:10:15;;;;;;;4.88;2.20;;;16.60;99.90;;;;;;5009036;28;20378;-48
2022/09/07 02:12:51;;;;;;;3.83;2.20;;;16.60;99.90;;;;;;5007413;28;20045;-48
2022/09/07 02:15:37;;;;;;;5.18;2.00;;;16.50;99.90;;;;;;5013459;28;20108;-48
2022/09/07 02:18:06;;;;;;;4.20;1.90;;;16.50;99.90;;;;;;5020660;28;20038;-47
2022/09/07 02:20:37;;;;;;;3.05;2.22;;;16.50;99.90;;;;;;5033863;28;20046;-47
2022/09/07 02:23:09;;;;;;;3.05;2.13;;;16.50;99.90;;;;;;5032861;28;20037;-47
2022/09/07 02:25:40;;;;;;;4.15;2.47;;;16.50;99.90;;;;;;5025670;28;20058;-47
2022/09/07 02:28:11;;;;;;;5.43;2.58;;;16.50;99.90;;;;;;5018347;28;20049;-49
2022/09/07 02:30:38;;;;;;;3.70;2.30;;;16.50;99.90;;;;;;5033584;28;20041;-45
2022/09/07 02:33:05;;;;;;;4.30;2.47;;;16.40;99.90;;;;;;5033531;28;20383;-48
2022/09/07 02:35:32;;;;;;;5.47;2.75;;;16.40;99.90;;;;;;5032067;28;20057;-48
2022/09/07 02:38:02;;;;;;;3.33;2.45;;;16.40;99.90;;;;;;5009615;28;20033;-48
2022/09/07 02:40:29;;;;;;;4.47;2.03;;;16.30;99.90;;;;;;5006606;28;20510;-48
2022/09/07 02:43:01;;;;;;;;;;;16.30;99.90;;;;;;5009179;28;20490;-48
2022/09/07 02:45:45;;;;;;;2.35;2.15;;;16.30;99.90;;;;;;5012621;28;19968;-48
2022/09/07 02:48:27;;;;;;;6.45;2.45;;;16.30;99.90;;;;;;5013477;28;20053;-47
2022/09/07 02:51:14;;;;;;;5.15;2.50;;;16.30;99.90;;;;;;5004566;28;20069;-51
2022/09/07 02:54:07;;;;;;;4.38;2.70;;;16.20;99.90;;;;;;5012978;28;20045;-47
2022/09/07 02:56:40;;;;;;;2.97;2.38;;;16.20;99.90;;;;;;5013247;28;20041;-48
2022/09/07 02:59:32;;;;;;;3.92;2.40;;;16.20;99.90;;;;;;5012266;28;20042;-48
2022/09/07 03:02:27;;;;;;;4.43;2.20;;;16.20;99.90;;;;;;5013122;28;20100;-47
2022/09/07 03:05:14;;;;;;;8.10;2.50;;;16.20;99.90;;;;;;5012627;28;20045;-48
2022/09/07 03:08:03;;;;;;;8.48;3.92;;;16.20;99.90;;;;;;5010825;28;20050;-48
2022/09/07 03:10:30;;;;;;;4.40;2.00;;;16.20;99.90;;;;;;5013155;28;20405;-48
2022/09/07 03:12:57;;;;;;;5.65;2.40;;;16.30;99.90;;;;;;5012969;28;20049;-48
2022/09/07 03:15:26;;;;;;;6.20;2.85;;;16.30;99.90;;;;;;5012678;28;20104;-47
2022/09/07 03:17:53;;;;;;;3.17;2.20;;;16.30;99.90;;;;;;5011619;28;20054;-47
2022/09/07 03:20:21;;;;;;;5.05;2.38;;;16.20;99.90;;;;;;5013009;28;20053;-48
2022/09/07 03:22:50;;;;;;;6.78;2.20;;;16.20;99.90;;;;;;4995110;28;20697;-48
2022/09/07 03:25:17;;;;;;;4.85;2.30;;;16.30;99.90;;;;;;5011222;28;20521;-48
2022/09/07 03:27:44;;;;;;;3.42;2.35;;;16.30;99.90;;;;;;5012273;28;20038;-49
2022/09/07 03:30:12;;;;;;;5.93;2.55;;;16.20;99.90;;;;;;5012102;28;20498;-48
2022/09/07 03:32:39;;;;;;;3.40;2.55;;;16.10;99.90;;;;;;5010408;28;20033;-47
2022/09/07 03:35:07;;;;;;;10.18;2.70;;;16.10;99.90;;;;;;5012002;28;20034;-49
2022/09/07 03:37:37;;;;;;;4.07;3.47;;;16.00;99.90;;;;;;5012255;28;20053;-49
2022/09/07 03:40:06;;;;;;;5.15;2.70;;;16.00;99.90;;;;;;5007926;28;20061;-48
2022/09/07 03:42:33;;;;;;;4.72;2.97;;;16.00;99.90;;;;;;4995249;28;20061;-48
2022/09/07 03:45:00;;;;;;;5.97;2.70;;;16.00;99.90;;;;;;5005613;28;20046;-48
2022/09/07 03:47:27;;;;;;;4.15;2.45;;;16.00;99.90;;;;;;5029029;28;20041;-48
2022/09/07 03:49:53;;;;;;;7.00;2.63;;;16.00;99.90;;;;;;5011598;28;20450;-49
2022/09/07 03:52:21;;;;;;;2.90;2.45;;;16.00;99.90;;;;;;5011133;28;20054;-47
2022/09/07 03:54:47;;;;;;;3.25;2.35;;;16.00;99.90;;;;;;5010799;28;20104;-48
2022/09/07 03:57:14;;;;;;;3.05;2.75;;;16.00;99.90;;;;;;4997469;28;20092;-48
2022/09/07 03:59:41;;;;;;;6.32;3.38;;;16.00;99.90;;;;;;5008930;28;20045;-48
2022/09/07 04:02:08;;;;;;;4.20;2.13;;;16.00;99.90;;;;;;4997425;28;20049;-47
2022/09/07 04:04:35;;;;;;;6.45;2.78;;;16.00;99.90;;;;;;4991673;28;20443;-48
2022/09/07 04:07:02;;;;;;;3.30;2.47;;;16.00;99.90;;;;;;5006961;28;20054;-48
2022/09/07 04:09:29;;;;;;;5.95;2.78;;;16.00;99.90;;;;;;5011512;28;20041;-47
2022/09/07 04:11:56;;;;;;;3.50;2.60;;;16.10;99.90;;;;;;5011255;28;20053;-48
2022/09/07 04:14:22;;;;;;;3.05;2.28;;;16.10;99.90;;;;;;5011400;28;20042;-47
2022/09/07 04:16:49;;;;;;;4.60;2.50;;;16.10;99.90;;;;;;5009816;28;20121;-48
2022/09/07 04:19:17;;;;;;;5.88;2.65;;;16.10;99.90;;;;;;5011332;28;20046;-49
2022/09/07 04:21:45;;;;;;;3.03;2.40;;;16.10;99.90;;;;;;5011148;28;20246;-48
2022/09/07 04:24:16;;;;;;;3.75;2.40;;;16.10;99.90;;;;;;5009678;28;20411;-51
2022/09/07 04:26:43;;;;;;;3.38;2.17;;;16.10;99.90;;;;;;5001954;28;20045;-48
2022/09/07 04:29:11;;;;;;;3.50;2.30;;;16.10;99.90;;;;;;5010384;28;20045;-49
2022/09/07 04:31:39;;;;;;;2.95;2.30;;;16.20;99.90;;;;;;5011237;28;20056;-48
2022/09/07 04:34:06;;;;;;;6.07;2.58;;;16.20;99.90;;;;;;5010053;28;20495;-47
2022/09/07 04:36:33;;;;;;;3.22;1.77;;;16.20;99.90;;;;;;5010896;28;20049;-48
2022/09/07 04:39:03;;;;;;;3.97;2.03;;;16.30;99.90;;;;;;5010966;28;20034;-48
2022/09/07 04:41:31;;;;;;;3.40;2.30;;;16.30;99.90;;;;;;5009674;28;20049;-49
2022/09/07 04:44:00;;;;;;;9.95;2.40;;;16.30;99.90;;;;;;5010857;28;20384;-48
2022/09/07 04:46:35;;;;;;;5.10;2.42;;;16.30;99.90;;;;;;5008246;28;20096;-51
2022/09/07 04:49:05;;;;;;;6.78;2.83;;;16.30;99.90;;;;;;5007703;28;20393;-49
2022/09/07 04:51:33;;;;;;;3.30;2.30;;;16.40;99.90;;;;;;5010593;28;20050;-49
2022/09/07 04:54:02;;;;;;;6.93;2.40;;;16.40;99.90;;;;;;5009651;28;20434;-48
2022/09/07 04:56:29;;;;;;;3.90;2.17;;;16.40;99.90;;;;;;5010662;28;20046;-48
2022/09/07 04:58:57;;;;;;;3.65;2.25;;;16.40;99.90;;;;;;5012652;28;20041;-47
2022/09/07 05:01:24;;;;;;;3.17;2.30;;;16.40;99.90;;;;;;5013234;28;20046;-48
2022/09/07 05:03:52;;;;;;;5.00;2.05;;;16.40;99.90;;;;;;5014874;28;20674;-48
2022/09/07 05:06:20;;;;;;;2.75;2.10;;;16.40;99.90;;;;;;5010544;28;20104;-48
2022/09/07 05:08:49;;;;;;;4.18;2.20;;;16.30;99.90;;;;;;5008932;28;20053;-48
2022/09/07 05:11:17;;;;;;;4.43;2.40;;;16.40;99.90;;;;;;5006540;28;20494;-49
2022/09/07 05:13:44;;;;;;;3.92;2.30;;;16.30;99.90;;;;;;5014667;28;20391;-51
2022/09/07 05:16:15;;;;;;;;;;;16.30;99.90;;;;;;5014999;28;20052;-48
2022/09/07 05:18:43;;;;;;;3.88;2.35;;;16.20;99.90;;;;;;5011855;28;19953;-48
2022/09/07 05:21:12;;;;;;;3.47;2.45;;;16.30;99.90;;;;;;5009273;28;20594;-48
2022/09/07 05:23:40;;;;;;;3.65;2.35;;;16.20;99.90;;;;;;5012797;28;20049;-48
2022/09/07 05:26:08;;;;;;;7.10;2.95;;;16.20;99.90;;;;;;5007186;28;20097;-48
2022/09/07 05:28:35;;;;;;;2.60;2.38;;;16.20;99.90;;;;;;5004272;28;20053;-48
2022/09/07 05:31:11;;;;;;;5.25;2.53;;;16.30;99.90;;;;;;5010856;28;20097;-48
2022/09/07 05:33:51;;;;;;;5.60;2.70;;;16.20;99.90;;;;;;5008368;28;20048;-49
2022/09/07 05:36:38;;;;;;;2.63;2.33;;;16.30;99.90;;;;;;5018240;28;20092;-49
2022/09/07 05:39:06;;;;;;;4.43;2.55;;;16.30;99.90;;;;;;5017202;28;20054;-49
2022/09/07 05:41:33;;;;;;;2.47;2.28;;;16.30;99.90;;;;;;5010286;28;20053;-48
2022/09/07 05:44:01;;;;;;;5.57;2.60;;;16.40;99.90;;;;;;5012881;28;20418;-49
2022/09/07 05:46:47;;;;;;;4.38;2.58;;;16.40;99.90;;;;;;5009111;28;20582;-46
2022/09/07 05:49:14;;;;;;;2.28;2.08;;;16.40;99.90;;;;;;5013651;28;20046;-48
2022/09/07 05:51:41;;;;;;;2.42;2.22;;;16.50;99.90;;;;;;5012616;28;20038;-48
2022/09/07 05:54:09;;;;;;;4.78;2.90;;;16.50;99.90;;;;;;5008264;28;20053;-49
2022/09/07 05:56:36;;;;;;;5.47;2.30;;;16.60;99.90;;;;;;5010893;28;20169;-49
2022/09/07 05:59:03;;;;;;;4.40;2.45;;;16.60;99.90;;;;;;5012584;28;20044;-49
2022/09/07 06:01:30;;;;;;;4.88;2.20;;;16.60;99.90;;;;;;5014509;28;20046;-48
2022/09/07 06:03:57;;;;;;;4.38;2.58;;;16.60;99.90;;;;;;5013192;28;20465;-48
2022/09/07 06:06:24;;;;;;;4.93;2.10;;;16.70;99.90;;;;;;5013883;28;20469;-48
2022/09/07 06:08:52;;;;;;;4.20;2.53;;;16.70;99.90;;;;;;5012219;28;20037;-48
2022/09/07 06:11:23;;;;;;;4.55;2.25;;;16.70;99.90;;;;;;5012463;28;20042;-48
2022/09/07 06:13:51;;;;;;;3.63;2.30;;;16.60;99.90;;;;;;5013368;28;20052;-48
2022/09/07 06:16:18;;;;;;;3.65;2.10;;;16.60;99.90;;;;;;5012670;28;20046;-47
2022/09/07 06:18:47;;;;;;;4.53;2.60;;;16.60;99.90;;;;;;5014161;28;20041;-48
2022/09/07 06:21:16;;;;;;;3.72;2.60;;;16.60;99.90;;;;;;5012892;28;20041;-48
2022/09/07 06:23:44;;;;;;;3.35;2.30;;;16.60;99.90;;;;;;5035910;22;20045;-46
2022/09/07 06:26:12;;;;;;;4.05;2.10;;;16.60;99.90;;;;;;5020062;28;20045;-48
2022/09/07 06:28:40;;;;;;;3.03;2.42;;;16.70;99.90;;;;;;5026035;28;20045;-47
2022/09/07 06:31:10;;;;;;;3.30;2.25;;;16.70;99.90;;;;;;5016100;28;20088;-48
2022/09/07 06:33:37;;;;;;;6.85;2.58;;;16.70;99.90;;;;;;5012497;28;20117;-46
2022/09/07 06:36:11;;;;;;;3.45;2.60;;;16.70;99.90;;;;;;5012604;28;20029;-46
2022/09/07 06:38:38;;;;;;;3.78;2.70;;;16.60;99.90;;;;;;5006473;28;20053;-50
2022/09/07 06:41:18;;;;;;;5.55;2.47;;;16.70;99.90;;;;;;5012251;28;20046;-48
2022/09/07 06:44:05;;;;;;;5.32;2.55;;;16.70;99.90;;;;;;5004116;28;20078;-47
2022/09/07 06:46:32;;;;;;;2.92;2.35;;;16.80;99.90;;;;;;5000585;28;20461;-46
2022/09/07 06:49:19;;;;;;;3.58;2.53;;;16.90;99.90;;;;;;4992942;28;20082;-46
2022/09/07 06:51:45;;;;;;;3.40;2.33;;;16.90;99.90;;;;;;5008728;28;20034;-48
2022/09/07 06:54:12;;;;;;;5.25;2.63;;;16.90;99.90;;;;;;4995999;28;20039;-47
2022/09/07 06:56:59;;;;;;;4.50;2.22;;;16.90;99.90;;;;;;4993314;28;20046;-49
2022/09/07 06:59:25;;;;;;;2.70;2.30;;;16.90;99.90;;;;;;5012301;28;20053;-46
2022/09/07 07:01:52;;;;;;;2.40;2.00;;;17.00;99.90;;;;;;5012640;28;20054;-46
2022/09/07 07:04:19;;;;;;;5.03;2.20;;;17.10;99.90;;;;;;4995404;28;20054;-47
2022/09/07 07:06:46;;;;;;;2.35;2.05;;;17.30;99.90;;;;;;4994845;28;20384;-47
2022/09/07 07:09:12;;;;;;;5.50;2.10;;;17.40;99.90;;;;;;5009481;28;20042;-46
2022/09/07 07:11:42;;;;;;;5.18;2.38;;;17.50;99.90;;;;;;5013067;28;20100;-47
2022/09/07 07:14:14;;;;;;;4.50;2.53;;;17.50;99.90;;;;;;5012206;28;20054;-48
2022/09/07 07:16:41;;;;;;;5.28;1.88;;;17.50;99.90;;;;;;5010403;28;20079;-46
2022/09/07 07:19:08;;;;;;;2.53;2.10;;;17.60;99.90;;;;;;5017493;28;20050;-46
2022/09/07 07:21:35;;;;;;;2.97;1.88;;;17.60;99.90;;;;;;5011689;28;20100;-48
2022/09/07 07:24:22;;;;;;;3.35;1.70;;;17.60;99.90;;;;;;5010715;28;20107;-47
2022/09/07 07:26:48;;;;;;;3.00;2.15;;;17.70;99.90;;;;;;5006166;28;20042;-46
2022/09/07 07:29:16;;;;;;;5.43;2.03;;;17.70;99.90;;;;;;5012644;28;20049;-46
2022/09/07 07:31:45;;;;;;;5.25;2.08;;;17.80;99.90;;;;;;5011144;28;20041;-47
2022/09/07 07:34:13;;;;;;;3.30;2.33;;;17.90;99.90;;;;;;5011968;28;20469;-47
2022/09/07 07:36:40;;;;;;;2.97;2.10;;;18.10;99.90;;;;;;5012504;28;20124;-46
2022/09/07 07:39:08;;;;;;;3.90;2.00;;;18.10;99.90;;;;;;4994631;28;20435;-48
2022/09/07 07:41:55;;;;;;;5.83;1.97;;;18.10;99.90;;;;;;5007916;28;20050;-46
2022/09/07 07:44:27;;;;;;;4.88;2.20;;;18.00;99.90;;;;;;5011736;28;20351;-46
2022/09/07 07:46:54;;;;;;;7.50;2.28;;;18.00;99.90;;;;;;5012376;28;20077;-47
2022/09/07 07:49:20;;;;;;;3.22;2.00;;;18.00;99.90;;;;;;5010514;28;20086;-46
2022/09/07 07:51:47;;;;;;;4.63;2.10;;;17.90;99.90;;;;;;5012048;28;20065;-47
2022/09/07 07:54:37;;;;;;;3.60;2.00;;;18.00;99.90;;;;;;5010061;28;20064;-46
2022/09/07 07:57:05;;;;;;;3.35;2.03;;;18.10;99.90;;;;;;5012088;28;20125;-46
2022/09/07 07:59:32;;;;;;;3.88;2.05;;;18.20;99.90;;;;;;4991592;28;20088;-47
2022/09/07 08:02:03;;;;;;;3.55;1.98;;;18.20;99.90;;;;;;4998853;28;20121;-49
2022/09/07 08:04:34;;;;;;;3.67;2.35;;;18.30;99.90;;;;;;5011311;28;20261;-47
2022/09/07 08:07:02;;;;;;;2.78;2.03;;;18.30;99.90;;;;;;5011346;28;20050;-49
2022/09/07 08:09:40;;;;;;;3.92;2.22;;;18.30;99.90;;;;;;5010873;28;20036;-47
2022/09/07 08:12:10;;;;;;;5.88;2.22;;;18.40;99.90;;;;;;5010486;28;20070;-47
2022/09/07 08:14:40;;;;;;;5.32;2.30;;;18.40;99.90;;;;;;5011341;28;20443;-46
2022/09/07 08:17:12;;;;;;;2.58;2.28;;;18.40;99.90;;;;;;5011690;28;20050;-46
2022/09/07 08:19:39;;;;;;;5.35;2.67;;;18.50;99.90;;;;;;5001799;28;20136;-46
2022/09/07 08:22:07;;;;;;;;;;;18.70;99.90;;;;;;5007076;28;20080;-47
2022/09/07 08:24:34;;;;;;;3.90;2.30;;;19.10;99.90;;;;;;5010778;28;19960;-49
2022/09/07 08:27:01;;;;;;;3.05;2.58;;;19.20;99.90;;;;;;5011673;28;20100;-46
2022/09/07 08:29:28;;;;;;;5.00;2.42;;;19.10;99.90;;;;;;4992741;28;20073;-46
2022/09/07 08:32:01;;;;;;;6.45;2.05;;;19.10;99.90;;;;;;5011450;28;20121;-46
2022/09/07 08:34:28;;;;;;;4.28;2.28;;;19.30;99.90;;;;;;5010109;28;20124;-46
2022/09/07 08:36:54;;;;;;;4.28;2.35;;;19.40;99.90;;;;;;5011234;28;20109;-46
2022/09/07 08:39:21;;;;;;;2.20;2.00;;;19.50;99.90;;;;;;5002693;28;20493;-46
2022/09/07 08:41:59;;;;;;;4.55;2.78;;;19.60;99.90;;;;;;4997276;28;20135;-47
2022/09/07 08:44:45;;;;;;;2.35;1.70;;;19.50;99.90;;;;;;5000739;28;20785;-46
2022/09/07 08:47:11;;;;;;;4.70;2.05;;;19.50;99.90;;;;;;5007961;28;20129;-46
2022/09/07 08:49:43;;;;;;;5.00;2.40;;;19.50;99.90;;;;;;5009430;28;20132;-46
2022/09/07 08:52:17;;;;;;;5.88;2.72;;;19.70;99.90;;;;;;5010447;28;20133;-46
2022/09/07 08:54:52;;;;;;;5.28;2.00;;;19.70;99.90;;;;;;5010259;28;20081;-48
2022/09/07 08:57:26;;;;;;;7.00;1.92;;;19.80;99.90;;;;;;5010146;28;20494;-47
2022/09/07 09:00:05;;;;;;;3.97;2.15;;;19.80;99.90;;;;;;5005994;28;20125;-47
2022/09/07 09:02:33;;;;;;;3.78;2.20;;;19.90;99.90;;;;;;5009410;28;20034;-47
2022/09/07 09:05:34;;;;;;;4.13;2.37;;;20.10;99.90;;;;;;5009427;28;20160;-47
2022/09/07 09:08:21;;;;;;;5.18;2.10;;;20.30;99.90;;;;;;5006306;28;20499;-46
2022/09/07 09:11:10;;;;;;;2.72;2.22;;;20.50;99.90;;;;;;5005797;28;20455;-47
2022/09/07 09:14:08;;;;;;;3.67;2.00;;;20.80;99.90;;;;;;5009919;28;20054;-46
2022/09/07 09:16:42;;;;;;;2.53;2.00;;;20.90;99.90;;;;;;5008740;28;20069;-48
2022/09/07 09:19:34;;;;;;;3.83;2.00;;;21.10;99.90;;;;;;5010829;28;20077;-46
2022/09/07 09:22:12;;;;;;;3.10;2.47;;;21.60;99.90;;;;;;5009283;28;20077;-47
2022/09/07 09:24:52;;;;;;;4.68;2.22;;;21.90;99.90;;;;;;5010774;28;20054;-47
2022/09/07 09:27:19;;;;;;;3.63;1.80;;;22.40;99.90;;;;;;5014376;28;20115;-50
2022/09/07 09:29:46;;;;;;;3.60;2.03;;;22.60;99.90;;;;;;5010906;28;20464;-47
2022/09/07 09:32:33;;;;;;;3.45;1.95;;;22.80;99.90;;;;;;5010751;28;20077;-48
2022/09/07 09:35:03;;;;;;;2.53;1.73;;;22.90;99.90;;;;;;5009239;28;20129;-46
2022/09/07 09:37:35;;;;;;;4.35;1.50;;;22.90;99.90;;;;;;5010669;28;20089;-47
2022/09/07 09:40:05;;;;;;;2.47;1.88;;;22.80;99.90;;;;;;5008787;28;20045;-47
2022/09/07 09:42:34;;;;;;;1.95;1.80;;;22.70;99.90;;;;;;4985881;28;20056;-46
2022/09/07 09:45:10;;;;;;;1.92;1.60;;;22.80;99.90;;;;;;5011574;28;20070;-47
2022/09/07 09:47:38;;;;;;;2.30;1.70;;;23.00;99.90;;;;;;5014610;28;20262;-47
2022/09/07 09:50:16;;;;;;;2.53;1.90;;;22.70;99.90;;;;;;5014675;28;20057;-47
2022/09/07 09:53:04;;;;;;;3.05;1.80;;;22.50;99.90;;;;;;5010883;28;20394;-46
2022/09/07 09:55:34;;;;;;;2.03;1.88;;;22.50;99.90;;;;;;5010749;28;20046;-46
2022/09/07 09:58:04;;;;;;;4.55;1.75;;;22.60;99.90;;;;;;5014551;28;20128;-47
2022/09/07 10:01:00;;;;;;;3.70;1.77;;;22.60;99.90;;;;;;5012566;28;20499;-47
2022/09/07 10:03:47;;;;;;;2.55;1.75;;;22.80;99.90;;;;;;5007534;28;20054;-47
2022/09/07 10:06:24;;;;;;;2.53;2.08;;;22.70;99.90;;;;;;5014591;28;20092;-46
2022/09/07 10:08:59;;;;;;;3.20;1.77;;;22.60;99.90;;;;;;5007455;28;20107;-48
2022/09/07 10:11:59;;;;;;;3.83;1.80;;;22.80;99.90;;;;;;5013627;28;20076;-46
2022/09/07 10:14:45;;;;;;;2.10;1.90;;;23.30;99.90;;;;;;4973968;28;20520;-47
2022/09/07 10:17:34;;;;;;;3.88;1.95;;;23.30;99.90;;;;;;5013892;28;20108;-47
2022/09/07 10:20:16;;;;;;;3.28;1.90;;;23.30;99.90;;;;;;5013081;28;20134;-46
2022/09/07 10:23:04;;;;;;;2.70;1.80;;;23.40;99.90;;;;;;5013611;28;20145;-47
2022/09/07 10:25:38;;;;;;;2.75;2.08;;;23.30;99.90;;;;;;5005333;28;20576;-50
2022/09/07 10:28:11;;;;;;;2.83;1.77;;;23.30;99.90;;;;;;5013622;28;20073;-50
2022/09/07 10:31:13;;;;;;;4.28;2.67;;;23.40;99.90;;;;;;5013845;28;20041;-46
2022/09/07 10:33:55;;;;;;;2.33;1.95;;;23.20;99.90;;;;;;5012077;28;20064;-47
2022/09/07 10:36:48;;;;;;;2.28;1.98;;;23.40;99.90;;;;;;5013530;28;20041;-46
2022/09/07 10:39:25;;;;;;;2.05;1.85;;;23.60;99.90;;;;;;5012696;28;20080;-47
2022/09/07 10:42:14;;;;;;;5.97;1.95;;;23.80;99.90;;;;;;5013543;28;20042;-47
2022/09/07 10:45:06;;;;;;;3.20;2.20;;;23.70;99.90;;;;;;5008646;28;20073;-46
2022/09/07 10:47:48;;;;;;;4.05;2.20;;;23.50;99.90;;;;;;5033205;28;20076;-46
2022/09/07 10:50:33;;;;;;;4.05;2.20;;;23.30;99.90;;;;;;5032301;28;20128;-46
2022/09/07 10:53:13;;;;;;;5.82;2.33;;;23.20;99.90;;;;;;5032962;28;20041;-46
2022/09/07 10:56:07;;;;;;;4.28;2.20;;;23.10;99.90;;;;;;5008036;28;20053;-47
2022/09/07 10:58:50;;;;;;;2.85;2.13;;;23.20;99.90;;;;;;5013067;28;20077;-48
2022/09/07 11:01:53;;;;;;;5.15;2.58;;;23.20;99.90;;;;;;5013324;28;20030;-46
2022/09/07 11:04:45;;;;;;;2.70;2.25;;;23.30;99.90;;;;;;5004950;28;20060;-48
2022/09/07 11:07:33;;;;;;;2.83;2.03;;;23.20;99.90;;;;;;5012610;28;20126;-47
2022/09/07 11:10:20;;;;;;;2.33;1.80;;;23.30;99.90;;;;;;5008547;28;20116;-51
2022/09/07 11:12:51;;;;;;;5.30;2.40;;;23.50;99.90;;;;;;5012274;28;20074;-48
2022/09/07 11:15:24;;;;;;;3.25;2.30;;;23.60;99.90;;;;;;5012688;28;20447;-47
2022/09/07 11:18:18;;;;;;;2.80;2.13;;;23.70;99.90;;;;;;5005713;28;20066;-47
2022/09/07 11:20:53;;;;;;;3.00;2.00;;;23.60;99.90;;;;;;4999765;28;20137;-47
2022/09/07 11:23:43;;;;;;;3.40;1.83;;;23.70;99.90;;;;;;5011970;28;20081;-46
2022/09/07 11:26:27;;;;;;;6.00;2.17;;;24.00;99.90;;;;;;5006153;28;20074;-47
2022/09/07 11:29:20;;;;;;;3.15;2.28;;;24.30;99.90;;;;;;5009595;28;20482;-46
2022/09/07 11:32:11;;;;;;;2.20;2.00;;;24.60;99.90;;;;;;5012076;28;20040;-47
2022/09/07 11:34:48;;;;;;;2.53;2.13;;;24.80;99.90;;;;;;5010571;28;20076;-47
2022/09/07 11:37:20;;;;;;;2.27;2.07;;;24.90;99.90;;;;;;5012280;28;20074;-48
2022/09/07 11:39:59;;;;;;;4.00;1.95;;;24.80;99.90;;;;;;5010897;28;20128;-48
2022/09/07 11:42:37;;;;;;;2.30;2.10;;;25.00;99.90;;;;;;4994631;28;20490;-46
2022/09/07 11:45:32;;;;;;;3.75;2.20;;;24.90;99.90;;;;;;5005379;28;20454;-47
2022/09/07 11:48:06;;;;;;;2.38;2.13;;;25.20;99.90;;;;;;5012127;28;20054;-47
2022/09/07 11:50:38;;;;;;;3.72;1.90;;;25.20;99.90;;;;;;5011535;28;20066;-46
2022/09/07 11:53:16;;;;;;;2.65;2.30;;;25.20;99.90;;;;;;5012243;28;20129;-46
2022/09/07 11:55:50;;;;;;;3.00;2.35;;;25.10;99.90;;;;;;5010783;28;20457;-46
2022/09/07 11:58:38;;;;;;;3.05;1.70;;;25.00;99.90;;;;;;5012031;28;20514;-46
2022/09/07 12:01:18;;;;;;;9.70;2.35;;;24.80;99.90;;;;;;5011951;28;20554;-46
2022/09/07 12:04:08;;;;;;;2.47;2.10;;;24.60;99.90;;;;;;5005713;28;20073;-47
2022/09/07 12:07:14;;;;;;;6.85;2.00;;;24.50;99.90;;;;;;4994465;28;20424;-47
2022/09/07 12:09:58;;;;;;;3.45;1.85;;;24.60;99.90;;;;;;5010768;28;20131;-47
2022/09/07 12:12:55;;;;;;;2.28;2.08;;;24.60;99.90;;;;;;5010772;28;20081;-49
2022/09/07 12:15:48;;;;;;;6.55;2.60;;;24.60;99.90;;;;;;5011738;28;20037;-46
2022/09/07 12:18:52;;;;;;;2.75;2.30;;;24.40;99.90;;;;;;5010328;28;20033;-46
2022/09/07 12:21:38;;;;;;;3.17;2.20;;;24.30;99.90;;;;;;5011343;28;20486;-48
2022/09/07 12:24:41;;;;;;;2.65;2.00;;;24.40;99.90;;;;;;5049311;23;20094;-46
2022/09/07 12:27:20;;;;;;;3.28;2.10;;;24.40;99.90;;;;;;5043321;28;20075;-45
2022/09/07 12:30:08;;;;;;;3.33;2.20;;;24.50;99.90;;;;;;5040639;28;20072;-46
2022/09/07 12:32:47;;;;;;;3.47;2.05;;;24.40;99.90;;;;;;4974733;28;20049;-45
2022/09/07 12:35:32;;;;;;;3.60;2.17;;;24.50;99.90;;;;;;5050639;28;20041;-45
2022/09/07 12:38:00;;;;;;;2.42;2.22;;;24.60;99.90;;;;;;5051093;28;20133;-47
2022/09/07 12:40:33;;;;;;;2.28;2.08;;;24.80;99.90;;;;;;5051418;28;20049;-46
2022/09/07 12:43:12;;;;;;;2.78;2.38;;;25.10;99.90;;;;;;5043500;28;20068;-46
2022/09/07 12:45:49;;;;;;;3.67;2.03;;;25.10;99.90;;;;;;5050648;28;20559;-47
2022/09/07 12:48:16;;;;;;;3.42;1.92;;;25.10;99.90;;;;;;5049895;28;20052;-47
2022/09/07 12:51:05;;;;;;;3.58;2.20;;;25.00;99.90;;;;;;5051057;28;20048;-47
2022/09/07 12:53:47;;;;;;;2.10;1.70;;;25.20;99.90;;;;;;5049906;28;20123;-47
2022/09/07 12:56:23;;;;;;;7.13;2.53;;;25.20;99.90;;;;;;5049283;28;20454;-47
2022/09/07 12:59:24;;;;;;;2.58;2.28;;;25.20;99.90;;;;;;5051095;28;20512;-46
2022/09/07 13:02:21;;;;;;;3.30;2.30;;;25.30;99.90;;;;;;5050714;28;20072;-47
2022/09/07 13:05:10;;;;;;;3.35;2.30;;;25.30;99.90;;;;;;5049375;28;20033;-47
2022/09/07 13:07:55;;;;;;;3.67;2.83;;;25.00;99.90;;;;;;5048445;28;20509;-46
2022/09/07 13:10:41;;;;;;;2.58;2.15;;;25.10;99.90;;;;;;5042256;28;20041;-46
2022/09/07 13:13:14;;;;;;;5.72;2.95;;;25.10;99.90;;;;;;5049706;28;20049;-47
2022/09/07 13:15:49;;;;;;;4.97;2.20;;;25.00;99.90;;;;;;5050626;28;20048;-48
2022/09/07 13:18:28;;;;;;;2.90;2.03;;;24.80;99.90;;;;;;5046612;28;20045;-47
2022/09/07 13:21:07;;;;;;;4.22;2.40;;;24.80;99.90;;;;;;5053837;28;20080;-47
2022/09/07 13:23:35;;;;;;;3.47;2.47;;;25.00;99.90;;;;;;5052665;28;20044;-47
2022/09/07 13:26:09;;;;;;;3.13;2.13;;;25.10;99.90;;;;;;5050832;28;20052;-47
2022/09/07 13:28:56;;;;;;;3.47;2.10;;;25.10;99.90;;;;;;5053943;28;20095;-46